Time;durP1;ratioP1;P1;durP2;ratioP2;P2;SDS_P1;SDS_P2;PMS_P1;PMS_P2;Temp;Humidity;BMP_temperature;BMP_pressure;BME280_temperature;BME280_humidity;BME280_pressure;Samples;Min_cycle;Max_cycle;Signal;HPM_P1;HPM_P2
2021/04/18 00:01:52;;;;;;;14.77;10.18;;;;;;;;;;4976387;28;20045;-73
2021/04/18 00:04:18;;;;;;;15.02;10.23;;;;;;;;;;4993934;28;20080;-73
2021/04/18 00:06:44;;;;;;;14.98;10.38;;;;;;;;;;4993991;28;20026;-73
2021/04/18 00:09:11;;;;;;;15.10;10.60;;;;;;;;;;4976320;28;20046;-73
2021/04/18 00:11:38;;;;;;;14.18;10.07;;;;;;;;;;4986396;28;20637;-73
2021/04/18 00:14:05;;;;;;;11.10;8.38;;;;;;;;;;4974455;28;20522;-71
2021/04/18 00:16:32;;;;;;;12.05;8.70;;;;;;;;;;4974659;28;20018;-73
2021/04/18 00:18:58;;;;;;;13.65;8.68;;;;;;;;;;4986700;28;20085;-73
2021/04/18 00:21:24;;;;;;;12.57;8.23;;;;;;;;;;4993463;28;20034;-73
2021/04/18 00:23:50;;;;;;;25.45;10.13;;;;;;;;;;4976129;28;20507;-72
2021/04/18 00:26:16;;;;;;;18.42;9.90;;;;;;;;;;4993683;28;20369;-72
2021/04/18 00:28:42;;;;;;;21.10;9.88;;;;;;;;;;4993628;28;20022;-72
2021/04/18 00:31:08;;;;;;;14.93;10.38;;;;;;;;;;4993590;28;20022;-72
2021/04/18 00:33:34;;;;;;;17.60;10.38;;;;;;;;;;4993501;28;20498;-73
2021/04/18 00:36:00;;;;;;;18.60;9.93;;;;;;;;;;4993403;28;20479;-71
2021/04/18 00:38:26;;;;;;;13.32;9.45;;;;;;;;;;4975828;28;20035;-71
2021/04/18 00:40:52;;;;;;;19.52;10.18;;;;;;;;;;4993145;28;20042;-72
2021/04/18 00:43:18;;;;;;;16.83;10.38;;;;;;;;;;4992653;28;20026;-72
2021/04/18 00:45:44;;;;;;;14.77;10.68;;;;;;;;;;4992280;28;20030;-71
2021/04/18 00:48:10;;;;;;;14.70;10.75;;;;;;;;;;4993533;28;20476;-71
2021/04/18 00:50:38;;;;;;;16.05;10.63;;;;;;;;;;4975946;28;20073;-72
2021/04/18 00:53:06;;;;;;;15.88;10.48;;;;;;;;;;4975206;28;20698;-73
2021/04/18 00:55:34;;;;;;;15.00;10.80;;;;;;;;;;4975607;28;20026;-71
2021/04/18 00:58:00;;;;;;;16.13;10.32;;;;;;;;;;4993257;28;20037;-72
2021/04/18 01:00:27;;;;;;;14.55;10.00;;;;;;;;;;4993179;28;20026;-71
2021/04/18 01:02:53;;;;;;;14.85;10.00;;;;;;;;;;4992813;28;20038;-72
2021/04/18 01:05:20;;;;;;;15.02;10.50;;;;;;;;;;4993024;28;20081;-73
2021/04/18 01:07:46;;;;;;;13.07;9.73;;;;;;;;;;4975759;28;20076;-72
2021/04/18 01:10:14;;;;;;;15.48;10.70;;;;;;;;;;4992872;28;20081;-73
2021/04/18 01:12:40;;;;;;;15.48;10.85;;;;;;;;;;4959139;28;20034;-73
2021/04/18 01:15:08;;;;;;;16.80;11.43;;;;;;;;;;4972928;28;20127;-73
2021/04/18 01:17:34;;;;;;;16.92;11.77;;;;;;;;;;4973374;28;20535;-73
2021/04/18 01:20:01;;;;;;;15.25;11.60;;;;;;;;;;4973207;28;20030;-72
2021/04/18 01:22:27;;;;;;;16.25;11.02;;;;;;;;;;4973063;28;20126;-72
2021/04/18 01:24:53;;;;;;;14.93;11.38;;;;;;;;;;4971903;28;20031;-72
2021/04/18 01:27:20;;;;;;;17.17;10.50;;;;;;;;;;4989041;28;20054;-72
2021/04/18 01:29:47;;;;;;;17.05;12.63;;;;;;;;;;4992343;28;20065;-73
2021/04/18 01:32:13;;;;;;;18.02;12.90;;;;;;;;;;4975054;28;20014;-73
2021/04/18 01:34:45;;;;;;;17.58;12.45;;;;;;;;;;4992530;28;20022;-74
2021/04/18 01:37:12;;;;;;;16.93;11.83;;;;;;;;;;4992478;28;20458;-74
2021/04/18 01:39:39;;;;;;;15.15;11.43;;;;;;;;;;4992607;28;20435;-74
2021/04/18 01:42:05;;;;;;;19.77;10.73;;;;;;;;;;4974997;28;20058;-73
2021/04/18 01:44:31;;;;;;;13.25;9.68;;;;;;;;;;4974897;28;20026;-73
2021/04/18 01:46:57;;;;;;;11.63;8.65;;;;;;;;;;4974874;28;20126;-74
2021/04/18 01:49:23;;;;;;;11.15;7.80;;;;;;;;;;4992499;28;20487;-74
2021/04/18 01:51:49;;;;;;;13.15;8.25;;;;;;;;;;4992385;28;20034;-74
2021/04/18 01:54:15;;;;;;;11.38;8.43;;;;;;;;;;4992323;28;20050;-74
2021/04/18 01:56:41;;;;;;;11.13;7.78;;;;;;;;;;4975192;28;20053;-74
2021/04/18 01:59:08;;;;;;;11.80;7.25;;;;;;;;;;4992045;28;20028;-75
2021/04/18 02:01:37;;;;;;;9.95;7.00;;;;;;;;;;4974712;28;20038;-74
2021/04/18 02:04:16;;;;;;;11.32;7.93;;;;;;;;;;4992183;28;20031;-73
2021/04/18 02:06:42;;;;;;;9.93;7.40;;;;;;;;;;4992309;28;20033;-73
2021/04/18 02:09:08;;;;;;;10.02;7.78;;;;;;;;;;4974591;28;20242;-73
2021/04/18 02:11:38;;;;;;;10.85;8.30;;;;;;;;;;4985027;28;20019;-73
2021/04/18 02:14:05;;;;;;;11.02;7.80;;;;;;;;;;4972701;28;20023;-73
2021/04/18 02:16:31;;;;;;;12.60;8.38;;;;;;;;;;4974110;28;20033;-73
2021/04/18 02:18:57;;;;;;;11.27;7.95;;;;;;;;;;4991889;28;20046;-73
2021/04/18 02:21:23;;;;;;;9.85;6.97;;;;;;;;;;4991851;28;20030;-72
2021/04/18 02:23:49;;;;;;;10.70;8.00;;;;;;;;;;4974527;28;20060;-73
2021/04/18 02:26:15;;;;;;;11.10;7.13;;;;;;;;;;4992094;28;20061;-73
2021/04/18 02:28:41;;;;;;;9.32;6.82;;;;;;;;;;4974323;28;20390;-74
2021/04/18 02:31:08;;;;;;;10.57;8.20;;;;;;;;;;4991611;28;20030;-74
2021/04/18 02:33:34;;;;;;;12.18;8.00;;;;;;;;;;4973796;28;20088;-74
2021/04/18 02:36:00;;;;;;;9.75;7.55;;;;;;;;;;4991905;28;20026;-74
2021/04/18 02:38:26;;;;;;;10.32;7.15;;;;;;;;;;4974541;28;20081;-74
2021/04/18 02:40:52;;;;;;;10.60;6.90;;;;;;;;;;4992432;28;20065;-74
2021/04/18 02:43:18;;;;;;;10.32;7.25;;;;;;;;;;4995321;28;20026;-72
2021/04/18 02:45:44;;;;;;;10.38;7.55;;;;;;;;;;4995564;28;20023;-73
2021/04/18 02:48:10;;;;;;;10.30;7.15;;;;;;;;;;4978098;28;20029;-73
2021/04/18 02:50:36;;;;;;;10.05;7.00;;;;;;;;;;4978041;28;20188;-73
2021/04/18 02:53:02;;;;;;;9.35;6.95;;;;;;;;;;4995412;28;20529;-72
2021/04/18 02:55:28;;;;;;;9.43;6.97;;;;;;;;;;4995555;28;20080;-73
2021/04/18 02:57:54;;;;;;;8.73;6.50;;;;;;;;;;4995336;28;20074;-73
2021/04/18 03:00:21;;;;;;;9.68;6.78;;;;;;;;;;4995364;28;20022;-73
2021/04/18 03:02:47;;;;;;;8.48;6.20;;;;;;;;;;4977667;28;20495;-73
2021/04/18 03:05:13;;;;;;;10.95;6.95;;;;;;;;;;4995045;28;20387;-74
2021/04/18 03:07:39;;;;;;;12.25;7.05;;;;;;;;;;4977728;28;20033;-74
2021/04/18 03:10:05;;;;;;;13.02;7.40;;;;;;;;;;4995626;28;20026;-75
2021/04/18 03:12:31;;;;;;;8.90;6.38;;;;;;;;;;4962966;28;20082;-75
2021/04/18 03:14:57;;;;;;;9.48;7.10;;;;;;;;;;4975707;28;20058;-74
2021/04/18 03:17:24;;;;;;;10.23;6.50;;;;;;;;;;4975763;28;20098;-73
2021/04/18 03:19:50;;;;;;;9.65;7.20;;;;;;;;;;4975928;28;20019;-73
2021/04/18 03:22:16;;;;;;;9.88;7.05;;;;;;;;;;4975312;28;20118;-74
2021/04/18 03:24:42;;;;;;;10.10;7.15;;;;;;;;;;4974356;28;20484;-73
2021/04/18 03:27:08;;;;;;;11.43;7.18;;;;;;;;;;4975625;28;20027;-73
2021/04/18 03:29:35;;;;;;;9.50;6.82;;;;;;;;;;4975883;28;20109;-74
2021/04/18 03:32:01;;;;;;;8.88;6.45;;;;;;;;;;4975578;28;20023;-73
2021/04/18 03:34:27;;;;;;;8.50;6.28;;;;;;;;;;4975384;28;20023;-74
2021/04/18 03:36:53;;;;;;;8.85;6.10;;;;;;;;;;4975424;28;20109;-72
2021/04/18 03:39:19;;;;;;;9.85;6.50;;;;;;;;;;4975496;28;20030;-74
2021/04/18 03:41:45;;;;;;;8.93;6.78;;;;;;;;;;4973993;28;20050;-74
2021/04/18 03:44:11;;;;;;;11.35;6.05;;;;;;;;;;4975164;28;20022;-73
2021/04/18 03:46:37;;;;;;;8.48;5.75;;;;;;;;;;4975412;28;20488;-73
2021/04/18 03:49:04;;;;;;;11.85;6.75;;;;;;;;;;4975299;28;20029;-73
2021/04/18 03:51:30;;;;;;;8.43;5.80;;;;;;;;;;4975375;28;20037;-73
2021/04/18 03:53:56;;;;;;;8.73;6.38;;;;;;;;;;4972817;28;20110;-73
2021/04/18 03:56:22;;;;;;;10.50;6.85;;;;;;;;;;4973803;28;20031;-73
2021/04/18 03:58:48;;;;;;;10.00;6.15;;;;;;;;;;4975186;28;20030;-73
2021/04/18 04:01:14;;;;;;;6.97;5.28;;;;;;;;;;4974722;28;20031;-73
2021/04/18 04:03:40;;;;;;;10.85;6.50;;;;;;;;;;4975111;28;20038;-73
2021/04/18 04:06:06;;;;;;;8.50;6.00;;;;;;;;;;4973776;28;20137;-72
2021/04/18 04:08:33;;;;;;;8.98;6.30;;;;;;;;;;4973423;28;20018;-72
2021/04/18 04:10:59;;;;;;;8.65;6.10;;;;;;;;;;4973117;28;20030;-72
2021/04/18 04:13:25;;;;;;;8.38;5.88;;;;;;;;;;4974745;28;20038;-72
2021/04/18 04:15:51;;;;;;;9.70;6.75;;;;;;;;;;4973287;28;20018;-71
2021/04/18 04:18:17;;;;;;;10.60;5.93;;;;;;;;;;4973617;28;20548;-73
2021/04/18 04:20:43;;;;;;;10.93;6.03;;;;;;;;;;4974907;28;20368;-73
2021/04/18 04:23:09;;;;;;;10.25;6.05;;;;;;;;;;4974532;28;20512;-74
2021/04/18 04:25:35;;;;;;;10.20;6.32;;;;;;;;;;4974612;28;20034;-73
2021/04/18 04:28:02;;;;;;;8.80;5.97;;;;;;;;;;4974722;28;20030;-72
2021/04/18 04:30:28;;;;;;;8.93;6.55;;;;;;;;;;4974652;28;20105;-74
2021/04/18 04:32:54;;;;;;;8.30;5.93;;;;;;;;;;4974172;28;20061;-73
2021/04/18 04:35:20;;;;;;;8.95;6.18;;;;;;;;;;4972981;28;20114;-73
2021/04/18 04:37:46;;;;;;;8.20;5.70;;;;;;;;;;4974374;28;20053;-73
2021/04/18 04:40:13;;;;;;;9.60;6.32;;;;;;;;;;4974391;28;20054;-73
2021/04/18 04:42:39;;;;;;;8.90;6.07;;;;;;;;;;4972809;28;20086;-73
2021/04/18 04:45:05;;;;;;;7.72;5.40;;;;;;;;;;4987309;28;20052;-73
2021/04/18 04:47:31;;;;;;;7.55;5.60;;;;;;;;;;4993785;28;20077;-73
2021/04/18 04:49:58;;;;;;;8.70;5.97;;;;;;;;;;4976096;28;20045;-73
2021/04/18 04:52:24;;;;;;;8.85;6.15;;;;;;;;;;4993421;28;20037;-72
2021/04/18 04:54:50;;;;;;;8.75;5.65;;;;;;;;;;4993321;28;20538;-73
2021/04/18 04:57:16;;;;;;;8.60;5.55;;;;;;;;;;4993103;28;20095;-73
2021/04/18 04:59:42;;;;;;;9.77;5.78;;;;;;;;;;4993298;28;20018;-72
2021/04/18 05:02:08;;;;;;;8.57;5.40;;;;;;;;;;4975604;28;20042;-72
2021/04/18 05:04:35;;;;;;;7.13;5.15;;;;;;;;;;4993094;28;20027;-74
2021/04/18 05:07:01;;;;;;;9.52;5.85;;;;;;;;;;4993364;28;20029;-74
2021/04/18 05:09:27;;;;;;;8.23;6.35;;;;;;;;;;4989759;28;20391;-74
2021/04/18 05:11:55;;;;;;;8.55;5.70;;;;;;;;;;4975434;28;20062;-74
2021/04/18 05:14:21;;;;;;;8.30;5.85;;;;;;;;;;4975503;28;20484;-73
2021/04/18 05:16:47;;;;;;;11.77;5.60;;;;;;;;;;4993126;28;20102;-73
2021/04/18 05:19:13;;;;;;;9.13;6.30;;;;;;;;;;4993086;28;20018;-72
2021/04/18 05:21:39;;;;;;;9.35;6.18;;;;;;;;;;4992861;28;20053;-72
2021/04/18 05:24:05;;;;;;;8.27;5.22;;;;;;;;;;4992996;28;20101;-72
2021/04/18 05:26:32;;;;;;;7.68;5.22;;;;;;;;;;4993130;28;20105;-73
2021/04/18 05:28:58;;;;;;;7.40;5.20;;;;;;;;;;4992908;28;20027;-73
2021/04/18 05:31:24;;;;;;;9.85;5.10;;;;;;;;;;4975425;28;20034;-72
2021/04/18 05:33:50;;;;;;;7.55;5.10;;;;;;;;;;4992929;28;20023;-72
2021/04/18 05:36:16;;;;;;;8.23;5.50;;;;;;;;;;4975295;28;20030;-74
2021/04/18 05:38:42;;;;;;;7.57;5.18;;;;;;;;;;4975516;28;20459;-75
2021/04/18 05:41:08;;;;;;;9.57;4.78;;;;;;;;;;4992578;28;20049;-73
2021/04/18 05:43:35;;;;;;;8.05;5.40;;;;;;;;;;4975284;28;20084;-74
2021/04/18 05:46:01;;;;;;;9.00;5.70;;;;;;;;;;4992785;28;20078;-74
2021/04/18 05:48:27;;;;;;;7.30;5.25;;;;;;;;;;4992791;28;20489;-73
2021/04/18 05:50:53;;;;;;;10.90;5.63;;;;;;;;;;4975254;28;20125;-72
2021/04/18 05:53:19;;;;;;;7.78;5.20;;;;;;;;;;4992382;28;20029;-72
2021/04/18 05:55:45;;;;;;;9.75;5.90;;;;;;;;;;4992470;28;20022;-73
2021/04/18 05:58:12;;;;;;;10.85;5.07;;;;;;;;;;4992345;28;20420;-74
2021/04/18 06:00:38;;;;;;;9.30;5.38;;;;;;;;;;4974916;28;20037;-74
2021/04/18 06:03:05;;;;;;;7.85;5.35;;;;;;;;;;4992288;28;20121;-74
2021/04/18 06:05:31;;;;;;;9.68;5.05;;;;;;;;;;4974968;28;20022;-73
2021/04/18 06:07:57;;;;;;;8.38;5.70;;;;;;;;;;4975015;28;20030;-74
2021/04/18 06:10:23;;;;;;;7.18;4.97;;;;;;;;;;4992572;28;20070;-73
2021/04/18 06:12:49;;;;;;;7.15;5.20;;;;;;;;;;4958021;28;20019;-73
2021/04/18 06:15:15;;;;;;;8.20;4.85;;;;;;;;;;4973186;28;20034;-74
2021/04/18 06:17:42;;;;;;;7.15;5.10;;;;;;;;;;4976572;28;20432;-74
2021/04/18 06:20:08;;;;;;;7.78;5.15;;;;;;;;;;4977172;28;20038;-73
2021/04/18 06:22:35;;;;;;;7.78;5.13;;;;;;;;;;4976632;28;20555;-74
2021/04/18 06:25:01;;;;;;;8.60;5.65;;;;;;;;;;4976641;28;20063;-73
2021/04/18 06:27:27;;;;;;;9.30;5.78;;;;;;;;;;4959255;28;20468;-73
2021/04/18 06:29:53;;;;;;;8.43;5.90;;;;;;;;;;4976746;28;20033;-74
2021/04/18 06:32:20;;;;;;;7.68;5.40;;;;;;;;;;4976690;28;20087;-73
2021/04/18 06:34:46;;;;;;;7.60;5.05;;;;;;;;;;4976802;28;20050;-75
2021/04/18 06:37:12;;;;;;;7.40;5.05;;;;;;;;;;4976744;28;20034;-74
2021/04/18 06:39:38;;;;;;;8.38;5.88;;;;;;;;;;4976378;28;20022;-74
2021/04/18 06:42:05;;;;;;;8.75;5.45;;;;;;;;;;4959041;28;20047;-73
2021/04/18 06:44:31;;;;;;;6.95;4.60;;;;;;;;;;4976502;28;20018;-73
2021/04/18 06:46:58;;;;;;;7.65;5.40;;;;;;;;;;4959065;28;20053;-74
2021/04/18 06:49:26;;;;;;;8.88;5.40;;;;;;;;;;4976489;28;20030;-73
2021/04/18 06:51:52;;;;;;;8.32;5.40;;;;;;;;;;4976352;28;20019;-73
2021/04/18 06:54:18;;;;;;;7.40;4.65;;;;;;;;;;4976178;28;20023;-74
2021/04/18 06:56:45;;;;;;;10.13;5.13;;;;;;;;;;4976196;28;20031;-74
2021/04/18 06:59:11;;;;;;;8.20;4.70;;;;;;;;;;4976064;28;20015;-74
2021/04/18 07:01:37;;;;;;;10.35;5.60;;;;;;;;;;4975942;28;20070;-73
2021/04/18 07:04:14;;;;;;;9.65;4.63;;;;;;;;;;4976012;28;20019;-72
2021/04/18 07:06:50;;;;;;;9.38;4.88;;;;;;;;;;4979974;28;20034;-72
2021/04/18 07:09:18;;;;;;;7.20;4.35;;;;;;;;;;4993092;28;20034;-74
2021/04/18 07:11:45;;;;;;;9.65;5.00;;;;;;;;;;4994945;28;20019;-74
2021/04/18 07:14:26;;;;;;;9.65;5.32;;;;;;;;;;4994962;28;20018;-75
2021/04/18 07:16:53;;;;;;;7.75;5.18;;;;;;;;;;4995119;28;20037;-74
2021/04/18 07:19:24;;;;;;;9.65;5.90;;;;;;;;;;4995090;28;20109;-74
2021/04/18 07:21:51;;;;;;;9.90;6.03;;;;;;;;;;4994674;28;20117;-73
2021/04/18 07:24:21;;;;;;;9.52;6.32;;;;;;;;;;4995216;28;20128;-73
2021/04/18 07:26:56;;;;;;;10.80;7.03;;;;;;;;;;4994959;28;20026;-74
2021/04/18 07:29:23;;;;;;;8.75;5.30;;;;;;;;;;4994982;28;20106;-73
2021/04/18 07:31:49;;;;;;;8.35;5.50;;;;;;;;;;4977375;28;20054;-73
2021/04/18 07:34:16;;;;;;;9.70;6.72;;;;;;;;;;4994955;28;20379;-72
2021/04/18 07:36:44;;;;;;;7.82;5.07;;;;;;;;;;4994907;28;20022;-74
2021/04/18 07:39:11;;;;;;;7.22;4.63;;;;;;;;;;4977030;28;20057;-75
2021/04/18 07:41:41;;;;;;;8.05;4.60;;;;;;;;;;4994209;28;20031;-74
2021/04/18 07:44:14;;;;;;;6.80;4.28;;;;;;;;;;4977106;28;20030;-74
2021/04/18 07:46:40;;;;;;;8.60;4.70;;;;;;;;;;4994574;28;20023;-75
2021/04/18 07:49:08;;;;;;;8.93;4.32;;;;;;;;;;4994409;28;20479;-74
2021/04/18 07:51:34;;;;;;;8.63;4.63;;;;;;;;;;4976915;28;20030;-74
2021/04/18 07:54:00;;;;;;;8.35;4.88;;;;;;;;;;4994379;28;20034;-76
2021/04/18 07:56:26;;;;;;;8.02;5.55;;;;;;;;;;4994249;28;20083;-74
2021/04/18 07:58:54;;;;;;;10.38;5.07;;;;;;;;;;4994160;28;20061;-73
2021/04/18 08:01:20;;;;;;;8.40;5.80;;;;;;;;;;4993947;28;20157;-71
2021/04/18 08:03:46;;;;;;;10.25;5.05;;;;;;;;;;4976666;28;20037;-73
2021/04/18 08:06:12;;;;;;;8.68;5.43;;;;;;;;;;4976793;28;20436;-73
2021/04/18 08:08:52;;;;;;;10.05;4.93;;;;;;;;;;4976405;28;20037;-73
2021/04/18 08:11:23;;;;;;;11.57;5.80;;;;;;;;;;4989151;28;20093;-74
2021/04/18 08:13:53;;;;;;;9.27;5.40;;;;;;;;;;4978013;28;20034;-74
2021/04/18 08:16:26;;;;;;;10.90;6.63;;;;;;;;;;4994238;28;20034;-73
2021/04/18 08:18:52;;;;;;;8.00;5.30;;;;;;;;;;4994157;28;20063;-74
2021/04/18 08:21:29;;;;;;;8.88;5.72;;;;;;;;;;4993971;28;20495;-74
2021/04/18 08:23:57;;;;;;;8.05;4.93;;;;;;;;;;4976228;28;20061;-73
2021/04/18 08:26:24;;;;;;;10.68;5.93;;;;;;;;;;4993915;28;20094;-74
2021/04/18 08:28:53;;;;;;;8.18;5.95;;;;;;;;;;4993766;28;20029;-74
2021/04/18 08:31:22;;;;;;;9.60;5.68;;;;;;;;;;4993536;28;20039;-73
2021/04/18 08:33:49;;;;;;;9.68;6.13;;;;;;;;;;4993423;28;20027;-73
2021/04/18 08:36:22;;;;;;;12.88;7.15;;;;;;;;;;4993909;28;20034;-73
2021/04/18 08:38:49;;;;;;;31.30;12.60;;;;;;;;;;4992825;28;20058;-73
2021/04/18 08:41:16;;;;;;;17.40;9.77;;;;;;;;;;4993405;28;20030;-72
2021/04/18 08:43:48;;;;;;;20.10;10.32;;;;;;;;;;4992795;28;20038;-73
2021/04/18 08:46:21;;;;;;;20.90;10.60;;;;;;;;;;4993285;28;20058;-73
2021/04/18 08:48:47;;;;;;;;;;;;;;;;;;4976114;28;20045;-73
2021/04/18 08:51:13;;;;;;;18.08;8.70;;;;;;;;;;4975609;28;19901;-73
2021/04/18 08:53:55;;;;;;;18.52;7.60;;;;;;;;;;4975546;28;20026;-73
2021/04/18 08:56:22;;;;;;;15.90;8.23;;;;;;;;;;4993227;28;20026;-73
2021/04/18 08:58:48;;;;;;;13.20;7.68;;;;;;;;;;4975669;28;20018;-73
2021/04/18 09:01:15;;;;;;;16.00;8.20;;;;;;;;;;4975419;28;20061;-73
2021/04/18 09:03:57;;;;;;;14.65;7.28;;;;;;;;;;4975475;28;20052;-73
2021/04/18 09:06:32;;;;;;;15.15;7.28;;;;;;;;;;4992953;28;20018;-72
2021/04/18 09:08:58;;;;;;;18.52;6.95;;;;;;;;;;4975492;28;20031;-74
2021/04/18 09:11:24;;;;;;;16.13;6.75;;;;;;;;;;4975066;28;20114;-75
2021/04/18 09:13:54;;;;;;;12.75;6.95;;;;;;;;;;4992807;28;20027;-74
2021/04/18 09:16:27;;;;;;;12.15;7.20;;;;;;;;;;4975469;28;20387;-73
2021/04/18 09:18:54;;;;;;;13.27;6.95;;;;;;;;;;4992652;28;20023;-72
2021/04/18 09:21:21;;;;;;;11.63;6.60;;;;;;;;;;4992133;28;20603;-73
2021/04/18 09:23:58;;;;;;;13.15;6.75;;;;;;;;;;4992429;28;20483;-73
2021/04/18 09:26:24;;;;;;;12.68;6.47;;;;;;;;;;4992562;28;20026;-73
2021/04/18 09:29:10;;;;;;;10.35;5.78;;;;;;;;;;4992473;28;20033;-73
2021/04/18 09:31:36;;;;;;;11.40;6.30;;;;;;;;;;4992490;28;20022;-73
2021/04/18 09:34:03;;;;;;;12.93;5.28;;;;;;;;;;4992671;28;20022;-72
2021/04/18 09:36:30;;;;;;;12.35;6.07;;;;;;;;;;4992563;28;20145;-71
2021/04/18 09:38:56;;;;;;;9.15;5.68;;;;;;;;;;4992271;28;20025;-75
2021/04/18 09:41:22;;;;;;;12.68;5.95;;;;;;;;;;4992005;28;20598;-74
2021/04/18 09:43:55;;;;;;;11.43;6.20;;;;;;;;;;4992243;28;20058;-74
2021/04/18 09:46:21;;;;;;;11.45;5.72;;;;;;;;;;4974782;28;20028;-75
2021/04/18 09:48:58;;;;;;;14.52;6.95;;;;;;;;;;4992130;28;20072;-74
2021/04/18 09:51:24;;;;;;;11.55;5.22;;;;;;;;;;4990897;28;20022;-75
2021/04/18 09:54:00;;;;;;;12.35;5.32;;;;;;;;;;4992129;28;20042;-75
2021/04/18 09:56:26;;;;;;;11.57;5.00;;;;;;;;;;4974804;28;20096;-73
2021/04/18 09:58:53;;;;;;;10.70;5.15;;;;;;;;;;4992251;28;20418;-74
2021/04/18 10:01:27;;;;;;;9.18;6.03;;;;;;;;;;4973478;28;20117;-74
2021/04/18 10:03:53;;;;;;;9.45;5.20;;;;;;;;;;4971270;28;20082;-73
2021/04/18 10:06:20;;;;;;;7.82;4.57;;;;;;;;;;4972595;28;20094;-74
2021/04/18 10:09:06;;;;;;;8.80;5.30;;;;;;;;;;4971099;28;20480;-75
2021/04/18 10:11:32;;;;;;;10.25;4.93;;;;;;;;;;4954699;28;20054;-74
2021/04/18 10:13:59;;;;;;;7.70;5.00;;;;;;;;;;4974236;28;20026;-73
2021/04/18 10:16:27;;;;;;;10.32;4.20;;;;;;;;;;4991691;28;20023;-74
2021/04/18 10:19:11;;;;;;;9.77;5.18;;;;;;;;;;4992026;28;20038;-74
2021/04/18 10:21:39;;;;;;;8.55;4.80;;;;;;;;;;4974238;28;20051;-75
2021/04/18 10:24:25;;;;;;;8.43;4.88;;;;;;;;;;4974503;28;20037;-73
2021/04/18 10:26:51;;;;;;;7.88;4.13;;;;;;;;;;4972261;28;20065;-73
2021/04/18 10:29:17;;;;;;;8.70;5.40;;;;;;;;;;4972135;28;20098;-73
2021/04/18 10:31:43;;;;;;;9.63;4.97;;;;;;;;;;4991184;28;20026;-72
2021/04/18 10:34:09;;;;;;;7.80;4.43;;;;;;;;;;4992117;28;20026;-74
2021/04/18 10:36:35;;;;;;;6.65;3.83;;;;;;;;;;4974623;28;20029;-72
2021/04/18 10:39:01;;;;;;;7.97;4.50;;;;;;;;;;4974397;28;20479;-71
2021/04/18 10:41:27;;;;;;;8.63;4.47;;;;;;;;;;4991693;28;20035;-73
2021/04/18 10:43:53;;;;;;;6.72;3.90;;;;;;;;;;4991860;28;20030;-73
2021/04/18 10:46:19;;;;;;;6.57;4.13;;;;;;;;;;4991828;28;20023;-74
2021/04/18 10:48:45;;;;;;;7.28;4.38;;;;;;;;;;4991662;28;20033;-74
2021/04/18 10:51:11;;;;;;;9.77;4.10;;;;;;;;;;4974023;28;20018;-75
2021/04/18 10:53:38;;;;;;;6.85;4.22;;;;;;;;;;4991520;28;20018;-75
2021/04/18 10:56:04;;;;;;;7.22;3.90;;;;;;;;;;4991629;28;20018;-75
2021/04/18 10:58:30;;;;;;;7.18;4.05;;;;;;;;;;4991656;28;20058;-75
2021/04/18 11:00:57;;;;;;;6.75;4.07;;;;;;;;;;4974163;28;20074;-75
2021/04/18 11:03:23;;;;;;;7.88;4.50;;;;;;;;;;4976765;28;20039;-74
2021/04/18 11:05:50;;;;;;;7.65;4.20;;;;;;;;;;4994776;28;20054;-73
2021/04/18 11:08:18;;;;;;;7.10;3.92;;;;;;;;;;4995259;28;20105;-75
2021/04/18 11:10:44;;;;;;;7.88;3.92;;;;;;;;;;4995221;28;20014;-72
2021/04/18 11:13:10;;;;;;;9.38;4.20;;;;;;;;;;4995014;28;20428;-72
2021/04/18 11:15:36;;;;;;;8.20;3.60;;;;;;;;;;4977326;28;20113;-73
2021/04/18 11:18:02;;;;;;;6.55;4.03;;;;;;;;;;4994841;28;20023;-75
2021/04/18 11:20:28;;;;;;;6.88;3.90;;;;;;;;;;4977341;28;20475;-71
2021/04/18 11:22:54;;;;;;;6.22;3.78;;;;;;;;;;4994517;28;20054;-74
2021/04/18 11:25:20;;;;;;;6.47;3.45;;;;;;;;;;4994793;28;20030;-74
2021/04/18 11:27:47;;;;;;;7.72;3.65;;;;;;;;;;4994763;28;20490;-75
2021/04/18 11:30:14;;;;;;;9.20;3.50;;;;;;;;;;4977117;28;20022;-75
2021/04/18 11:32:41;;;;;;;6.20;3.50;;;;;;;;;;4977313;28;20029;-74
2021/04/18 11:35:08;;;;;;;5.28;3.45;;;;;;;;;;4994603;28;20023;-74
2021/04/18 11:37:34;;;;;;;6.82;3.45;;;;;;;;;;4994387;28;20049;-74
2021/04/18 11:40:00;;;;;;;8.95;3.33;;;;;;;;;;4994628;28;20110;-73
2021/04/18 11:42:27;;;;;;;8.82;3.53;;;;;;;;;;4994287;28;20034;-74
2021/04/18 11:44:53;;;;;;;7.30;3.58;;;;;;;;;;4994678;28;20069;-74
2021/04/18 11:47:20;;;;;;;5.18;3.38;;;;;;;;;;4994347;28;20027;-72
2021/04/18 11:49:46;;;;;;;6.10;3.30;;;;;;;;;;4994612;28;20065;-72
2021/04/18 11:52:14;;;;;;;4.90;2.97;;;;;;;;;;4994395;28;20083;-72
2021/04/18 11:54:40;;;;;;;6.55;3.45;;;;;;;;;;4994413;28;20026;-72
2021/04/18 11:57:07;;;;;;;5.25;3.13;;;;;;;;;;4994231;28;20030;-73
2021/04/18 11:59:33;;;;;;;6.30;3.40;;;;;;;;;;4994282;28;20042;-73
2021/04/18 12:02:00;;;;;;;5.60;3.42;;;;;;;;;;4987748;28;20023;-73
2021/04/18 12:04:26;;;;;;;6.50;3.42;;;;;;;;;;4973540;28;20443;-74
2021/04/18 12:06:52;;;;;;;8.50;3.20;;;;;;;;;;4974903;28;20041;-74
2021/04/18 12:09:18;;;;;;;7.13;3.15;;;;;;;;;;4974557;28;20061;-74
2021/04/18 12:11:44;;;;;;;7.05;3.38;;;;;;;;;;4982577;28;20022;-73
2021/04/18 12:14:10;;;;;;;5.95;3.65;;;;;;;;;;4993361;28;20027;-73
2021/04/18 12:16:36;;;;;;;6.60;3.80;;;;;;;;;;4976581;28;20060;-73
2021/04/18 12:19:02;;;;;;;7.30;3.58;;;;;;;;;;4993902;28;20026;-73
2021/04/18 12:21:28;;;;;;;9.60;3.92;;;;;;;;;;4993467;28;20390;-73
2021/04/18 12:23:56;;;;;;;7.13;4.03;;;;;;;;;;4993880;28;20027;-73
2021/04/18 12:26:22;;;;;;;5.40;3.60;;;;;;;;;;4976177;28;20026;-74
2021/04/18 12:28:48;;;;;;;7.10;3.50;;;;;;;;;;4976244;28;20499;-73
2021/04/18 12:31:14;;;;;;;5.25;3.15;;;;;;;;;;4976155;28;20065;-74
2021/04/18 12:33:40;;;;;;;9.02;3.63;;;;;;;;;;4976245;28;20022;-73
2021/04/18 12:36:06;;;;;;;5.38;2.88;;;;;;;;;;4976449;28;20698;-73
2021/04/18 12:38:33;;;;;;;5.45;2.78;;;;;;;;;;5001255;28;20144;-72
2021/04/18 12:40:59;;;;;;;6.03;3.25;;;;;;;;;;5002763;28;20029;-72
2021/04/18 12:43:25;;;;;;;4.93;3.10;;;;;;;;;;4983909;28;20387;-72
2021/04/18 12:45:51;;;;;;;5.78;3.35;;;;;;;;;;5000601;28;20147;-73
2021/04/18 12:48:17;;;;;;;6.18;3.60;;;;;;;;;;4975782;28;20030;-73
2021/04/18 12:50:43;;;;;;;7.40;3.22;;;;;;;;;;4993375;28;20018;-73
2021/04/18 12:53:09;;;;;;;5.63;3.25;;;;;;;;;;4975846;28;20018;-72
2021/04/18 12:55:35;;;;;;;7.05;3.38;;;;;;;;;;4975872;28;20093;-73
2021/04/18 12:58:01;;;;;;;6.28;3.30;;;;;;;;;;4975968;28;20022;-74
2021/04/18 13:00:28;;;;;;;9.25;3.20;;;;;;;;;;4975834;28;20046;-72
2021/04/18 13:02:55;;;;;;;8.00;3.20;;;;;;;;;;4979294;28;20042;-73
2021/04/18 13:05:21;;;;;;;5.75;3.58;;;;;;;;;;4992941;28;20023;-72
2021/04/18 13:07:47;;;;;;;5.60;3.22;;;;;;;;;;4986261;28;20033;-73
2021/04/18 13:10:13;;;;;;;9.43;3.50;;;;;;;;;;5012611;28;20046;-73
2021/04/18 13:12:44;;;;;;;7.10;3.40;;;;;;;;;;4996560;28;20026;-72
2021/04/18 13:15:11;;;;;;;8.48;2.88;;;;;;;;;;4992661;28;20023;-73
2021/04/18 13:17:37;;;;;;;6.55;3.75;;;;;;;;;;4992860;28;20033;-73
2021/04/18 13:20:04;;;;;;;10.57;3.05;;;;;;;;;;4998830;28;20394;-73
2021/04/18 13:22:31;;;;;;;8.35;2.80;;;;;;;;;;4974962;28;20215;-73
2021/04/18 13:24:57;;;;;;;9.20;4.57;;;;;;;;;;4992469;28;20022;-73
2021/04/18 13:27:23;;;;;;;9.45;3.05;;;;;;;;;;4992373;28;20022;-74
2021/04/18 13:29:49;;;;;;;7.55;5.10;;;;;;;;;;4992512;28;20022;-73
2021/04/18 13:32:15;;;;;;;7.03;4.57;;;;;;;;;;4992345;28;20030;-74
2021/04/18 13:34:41;;;;;;;7.43;3.90;;;;;;;;;;4992494;28;20026;-73
2021/04/18 13:37:07;;;;;;;8.15;4.43;;;;;;;;;;4974690;28;20026;-74
2021/04/18 13:39:34;;;;;;;9.13;4.35;;;;;;;;;;4992631;28;20030;-74
2021/04/18 13:42:00;;;;;;;12.10;4.90;;;;;;;;;;4992452;28;20039;-75
2021/04/18 13:44:26;;;;;;;10.30;4.15;;;;;;;;;;4974988;28;20029;-74
2021/04/18 13:46:52;;;;;;;12.45;4.60;;;;;;;;;;4992354;28;20026;-74
2021/04/18 13:49:18;;;;;;;15.75;4.88;;;;;;;;;;4992017;28;20026;-74
2021/04/18 13:51:44;;;;;;;17.38;4.65;;;;;;;;;;4993061;28;21476;-75
2021/04/18 13:54:11;;;;;;;9.27;4.15;;;;;;;;;;4988782;28;20027;-76
2021/04/18 13:56:37;;;;;;;9.73;4.50;;;;;;;;;;4994014;28;20018;-75
2021/04/18 13:59:04;;;;;;;8.63;3.83;;;;;;;;;;5011939;28;20080;-75
2021/04/18 14:01:30;;;;;;;14.43;5.15;;;;;;;;;;4998865;28;20029;-74
2021/04/18 14:03:56;;;;;;;11.55;4.47;;;;;;;;;;4992100;28;20030;-75
2021/04/18 14:06:22;;;;;;;12.15;4.85;;;;;;;;;;4992005;28;20034;-74
2021/04/18 14:08:48;;;;;;;12.57;4.80;;;;;;;;;;4974522;28;20030;-75
2021/04/18 14:11:15;;;;;;;11.02;4.18;;;;;;;;;;4992019;28;20149;-75
2021/04/18 14:13:44;;;;;;;15.07;4.88;;;;;;;;;;4986406;28;20531;-75
2021/04/18 14:16:10;;;;;;;8.63;4.35;;;;;;;;;;4994019;28;20022;-75
2021/04/18 14:18:37;;;;;;;7.65;3.80;;;;;;;;;;4994039;28;20045;-74
2021/04/18 14:21:04;;;;;;;9.27;3.60;;;;;;;;;;5011778;28;20030;-74
2021/04/18 14:23:30;;;;;;;9.68;4.28;;;;;;;;;;5011162;28;20053;-73
2021/04/18 14:25:56;;;;;;;8.90;4.28;;;;;;;;;;5011389;28;20025;-73
2021/04/18 14:28:22;;;;;;;8.10;4.38;;;;;;;;;;4978073;28;20030;-74
2021/04/18 14:30:49;;;;;;;7.53;3.90;;;;;;;;;;4970902;28;20094;-73
2021/04/18 14:33:15;;;;;;;7.13;3.70;;;;;;;;;;4972548;28;20042;-73
2021/04/18 14:35:41;;;;;;;9.68;4.22;;;;;;;;;;4971395;28;20027;-73